Time,TemperatureF,DewpointF,PressureIn,WindDirection,WindDirectionDegrees,WindSpeedMPH,WindSpeedGustMPH,Humidity,HourlyPrecipIn,Conditions,Clouds,dailyrainin,SoftwareType,DateUTC
2013-04-18 00:00:00,56.2,48.0,30.15,East,94,2.0,3.0,74,0.00,,,0.00,Wunderground v.1.15,2013-04-18 04:00:00,
2013-04-18 00:01:00,56.4,48.2,30.15,South,172,2.0,3.0,74,0.00,,,0.00,Wunderground v.1.15,2013-04-18 04:01:00,
2013-04-18 00:02:00,56.5,48.3,30.15,SSE,159,2.0,3.0,74,0.00,,,0.00,Wunderground v.1.15,2013-04-18 04:02:00,
2013-04-18 00:03:00,56.5,48.7,30.15,SSE,155,2.0,3.0,75,0.00,,,0.00,Wunderground v.1.15,2013-04-18 04:03:00,
2013-04-18 00:04:00,56.6,48.8,30.15,South,184,2.0,3.0,75,0.00,,,0.00,Wunderground v.1.15,2013-04-18 04:04:00,
2013-04-18 00:05:00,56.7,48.9,30.15,South,184,2.0,3.0,75,0.00,,,0.00,Wunderground v.1.15,2013-04-18 04:05:00,
2013-04-18 00:10:00,57.0,49.5,30.15,East,101,1.0,1.0,76,0.00,,,0.00,Wunderground v.1.15,2013-04-18 04:10:00,
2013-04-18 00:16:00,57.4,50.2,30.15,SE,136,1.0,2.0,77,0.00,,,0.00,Wunderground v.1.15,2013-04-18 04:16:00,
2013-04-18 00:22:00,57.7,50.5,30.14,East,97,1.0,2.0,77,0.00,,,0.00,Wunderground v.1.15,2013-04-18 04:22:00,
2013-04-18 00:28:00,58.0,51.2,30.14,SSE,151,1.0,3.0,78,0.00,,,0.00,Wunderground v.1.15,2013-04-18 04:28:00,
2013-04-18 00:33:00,58.2,51.4,30.13,SSE,161,1.0,4.0,78,0.00,,,0.00,Wunderground v.1.15,2013-04-18 04:33:00,
2013-04-18 00:39:00,58.5,51.7,30.13,South,183,2.0,2.0,78,0.00,,,0.00,Wunderground v.1.15,2013-04-18 04:39:00,
2013-04-18 00:46:00,58.7,52.2,30.12,SSW,192,2.0,6.0,79,0.00,,,0.00,Wunderground v.1.15,2013-04-18 04:46:00,
2013-04-18 00:51:00,58.7,52.2,30.12,South,189,3.0,4.0,79,0.00,,,0.00,Wunderground v.1.15,2013-04-18 04:51:00,
2013-04-18 00:57:00,58.8,52.6,30.12,ESE,121,2.0,8.0,80,0.00,,,0.00,Wunderground v.1.15,2013-04-18 04:57:00,
2013-04-18 01:03:00,58.9,52.7,30.12,SSE,167,2.0,7.0,80,0.00,,,0.00,Wunderground v.1.15,2013-04-18 05:03:00,
2013-04-18 01:08:00,58.9,53.1,30.12,ESE,113,2.0,7.0,81,0.00,,,0.00,Wunderground v.1.15,2013-04-18 05:08:00,
2013-04-18 01:14:00,59.0,53.2,30.11,ESE,111,2.0,7.0,81,0.00,,,0.00,Wunderground v.1.15,2013-04-18 05:14:00,
2013-04-18 01:20:00,59.1,53.6,30.11,SSE,153,2.0,7.0,82,0.00,,,0.00,Wunderground v.1.15,2013-04-18 05:20:00,
2013-04-18 01:26:00,59.3,53.8,30.11,SSE,163,3.0,7.0,82,0.00,,,0.00,Wunderground v.1.15,2013-04-18 05:26:00,
2013-04-18 01:31:00,59.4,53.9,30.11,East,98,4.0,7.0,82,0.00,,,0.00,Wunderground v.1.15,2013-04-18 05:31:00,
2013-04-18 01:37:00,59.5,54.3,30.10,SSE,155,3.0,9.0,83,0.00,,,0.00,Wunderground v.1.15,2013-04-18 05:37:00,
2013-04-18 01:43:00,59.5,54.3,30.10,SSE,150,3.0,7.0,83,0.00,,,0.00,Wunderground v.1.15,2013-04-18 05:43:00,
2013-04-18 01:49:00,59.5,54.3,30.09,ESE,103,3.0,7.0,83,0.00,,,0.00,Wunderground v.1.15,2013-04-18 05:49:00,
2013-04-18 01:54:00,59.6,54.4,30.08,ESE,119,3.0,10.0,83,0.00,,,0.00,Wunderground v.1.15,2013-04-18 05:54:00,
2013-04-18 02:00:00,59.5,54.7,30.08,ESE,103,3.0,7.0,84,0.00,,,0.00,Wunderground v.1.15,2013-04-18 06:00:00,
2013-04-18 02:06:00,59.5,54.7,30.08,ESE,121,3.0,7.0,84,0.00,,,0.00,Wunderground v.1.15,2013-04-18 06:06:00,
2013-04-18 02:12:00,59.5,54.7,30.07,ESE,113,3.0,7.0,84,0.00,,,0.00,Wunderground v.1.15,2013-04-18 06:12:00,
2013-04-18 02:18:00,59.5,54.7,30.07,South,183,2.0,7.0,84,0.00,,,0.00,Wunderground v.1.15,2013-04-18 06:18:00,
2013-04-18 02:23:00,59.6,55.1,30.07,SSE,165,2.0,7.0,85,0.00,,,0.00,Wunderground v.1.15,2013-04-18 06:23:00,
2013-04-18 02:29:00,59.6,55.1,30.07,South,184,2.0,7.0,85,0.00,,,0.00,Wunderground v.1.15,2013-04-18 06:29:00,
2013-04-18 02:35:00,59.7,55.2,30.06,South,169,1.0,7.0,85,0.00,,,0.00,Wunderground v.1.15,2013-04-18 06:35:00,
2013-04-18 02:40:00,59.8,55.3,30.05,South,172,2.0,7.0,85,0.00,,,0.00,Wunderground v.1.15,2013-04-18 06:40:00,
2013-04-18 02:46:00,59.9,55.4,30.05,SE,138,2.0,7.0,85,0.00,,,0.00,Wunderground v.1.15,2013-04-18 06:46:00,
2013-04-18 02:52:00,60.0,55.5,30.05,SE,133,2.0,7.0,85,0.00,,,0.00,Wunderground v.1.15,2013-04-18 06:52:00,
2013-04-18 02:58:00,60.0,55.5,30.05,SE,127,2.0,7.0,85,0.00,,,0.00,Wunderground v.1.15,2013-04-18 06:58:00,
2013-04-18 03:04:00,60.1,55.6,30.04,East,91,3.0,9.0,85,0.00,,,0.00,Wunderground v.1.15,2013-04-18 07:04:00,
2013-04-18 03:10:00,60.1,55.6,30.04,ESE,114,3.0,7.0,85,0.00,,,0.00,Wunderground v.1.15,2013-04-18 07:10:00,
2013-04-18 03:16:00,60.1,55.6,30.03,SE,139,4.0,7.0,85,0.00,,,0.00,Wunderground v.1.15,2013-04-18 07:16:00,
2013-04-18 03:21:00,60.1,55.6,30.03,SSE,152,3.0,7.0,85,0.00,,,0.00,Wunderground v.1.15,2013-04-18 07:21:00,
2013-04-18 03:27:00,60.0,55.8,30.03,East,86,3.0,7.0,86,0.00,,,0.00,Wunderground v.1.15,2013-04-18 07:27:00,
2013-04-18 03:33:00,60.0,55.8,30.03,SE,136,4.0,7.0,86,0.00,,,0.00,Wunderground v.1.15,2013-04-18 07:33:00,
2013-04-18 03:39:00,60.0,55.8,30.03,East,82,3.0,7.0,86,0.00,,,0.00,Wunderground v.1.15,2013-04-18 07:39:00,
2013-04-18 03:44:00,59.9,55.7,30.03,SSE,164,2.0,7.0,86,0.00,,,0.00,Wunderground v.1.15,2013-04-18 07:44:00,
2013-04-18 03:50:00,59.8,55.9,30.03,SE,126,3.0,7.0,87,0.00,,,0.00,Wunderground v.1.15,2013-04-18 07:50:00,
2013-04-18 03:56:00,59.7,55.8,30.03,SE,146,3.0,7.0,87,0.00,,,0.00,Wunderground v.1.15,2013-04-18 07:56:00,
2013-04-18 04:02:00,59.7,55.8,30.03,SE,134,3.0,7.0,87,0.00,,,0.00,Wunderground v.1.15,2013-04-18 08:02:00,
2013-04-18 04:08:00,59.7,55.8,30.03,SE,139,2.0,7.0,87,0.00,,,0.00,Wunderground v.1.15,2013-04-18 08:08:00,
2013-04-18 04:13:00,59.6,55.7,30.02,South,180,2.0,7.0,87,0.00,,,0.00,Wunderground v.1.15,2013-04-18 08:13:00,
2013-04-18 04:19:00,59.6,55.7,30.02,SSE,163,2.0,7.0,87,0.00,,,0.00,Wunderground v.1.15,2013-04-18 08:19:00,
2013-04-18 04:25:00,59.5,55.6,30.02,SSE,164,3.0,7.0,87,0.00,,,0.00,Wunderground v.1.15,2013-04-18 08:25:00,
2013-04-18 04:31:00,59.5,55.9,30.02,SSE,161,2.0,7.0,88,0.00,,,0.00,Wunderground v.1.15,2013-04-18 08:31:00,
2013-04-18 04:37:00,59.5,55.9,30.01,SE,142,2.0,7.0,88,0.00,,,0.00,Wunderground v.1.15,2013-04-18 08:37:00,
2013-04-18 04:43:00,59.4,55.8,30.01,SE,138,3.0,7.0,88,0.00,,,0.00,Wunderground v.1.15,2013-04-18 08:43:00,
2013-04-18 04:48:00,59.3,55.7,30.01,SSE,153,3.0,7.0,88,0.00,,,0.00,Wunderground v.1.15,2013-04-18 08:48:00,
2013-04-18 04:54:00,59.3,55.7,30.01,SSE,163,3.0,7.0,88,0.00,,,0.00,Wunderground v.1.15,2013-04-18 08:54:00,
2013-04-18 05:00:00,59.4,56.2,30.01,SSE,153,3.0,7.0,89,0.00,,,0.00,Wunderground v.1.15,2013-04-18 09:00:00,
2013-04-18 05:06:00,59.6,56.0,30.01,SSE,162,4.0,10.0,88,0.00,,,0.00,Wunderground v.1.15,2013-04-18 09:06:00,
2013-04-18 05:11:00,59.7,56.1,30.01,East,99,3.0,7.0,88,0.00,,,0.00,Wunderground v.1.15,2013-04-18 09:11:00,
2013-04-18 05:17:00,59.7,56.1,30.01,ESE,107,3.0,7.0,88,0.00,,,0.00,Wunderground v.1.15,2013-04-18 09:17:00,
2013-04-18 05:23:00,59.6,56.0,30.00,ESE,108,3.0,7.0,88,0.00,,,0.00,Wunderground v.1.15,2013-04-18 09:23:00,
2013-04-18 05:28:00,59.5,55.9,30.00,SE,141,3.0,7.0,88,0.00,,,0.00,Wunderground v.1.15,2013-04-18 09:28:00,
2013-04-18 05:34:00,59.6,56.4,30.00,ESE,116,3.0,7.0,89,0.00,,,0.00,Wunderground v.1.15,2013-04-18 09:34:00,
2013-04-18 05:40:00,59.5,55.9,30.00,ESE,107,3.0,7.0,88,0.00,,,0.00,Wunderground v.1.15,2013-04-18 09:40:00,
2013-04-18 05:46:00,59.5,56.3,29.99,South,171,3.0,7.0,89,0.00,,,0.00,Wunderground v.1.15,2013-04-18 09:46:00,
2013-04-18 05:51:00,59.7,56.5,29.99,SE,125,4.0,7.0,89,0.00,,,0.00,Wunderground v.1.15,2013-04-18 09:51:00,
2013-04-18 05:57:00,59.8,56.2,29.99,SE,142,4.0,7.0,88,0.00,,,0.00,Wunderground v.1.15,2013-04-18 09:57:00,
2013-04-18 06:02:00,59.8,56.2,29.99,ESE,102,4.0,7.0,88,0.00,,,0.00,Wunderground v.1.15,2013-04-18 10:02:00,
2013-04-18 06:08:00,59.8,56.2,30.00,SE,146,4.0,7.0,88,0.00,,,0.00,Wunderground v.1.15,2013-04-18 10:08:00,
2013-04-18 06:13:00,59.8,56.2,30.00,ESE,119,3.0,4.0,88,0.00,,,0.00,Wunderground v.1.15,2013-04-18 10:13:00,
2013-04-18 06:19:00,59.8,56.2,30.00,SE,126,4.0,4.0,88,0.00,,,0.00,Wunderground v.1.15,2013-04-18 10:19:00,
2013-04-18 06:25:00,59.7,56.1,29.99,SSE,167,4.0,6.0,88,0.00,,,0.00,Wunderground v.1.15,2013-04-18 10:25:00,
2013-04-18 06:31:00,59.7,56.1,30.00,SE,140,3.0,3.0,88,0.00,,,0.00,Wunderground v.1.15,2013-04-18 10:31:00,
2013-04-18 06:37:00,59.8,56.2,30.00,SSE,162,3.0,4.0,88,0.00,,,0.00,Wunderground v.1.15,2013-04-18 10:37:00,
2013-04-18 06:43:00,59.9,56.3,30.00,SSE,163,3.0,4.0,88,0.00,,,0.00,Wunderground v.1.15,2013-04-18 10:43:00,
2013-04-18 06:49:00,60.3,56.7,30.00,South,189,4.0,4.0,88,0.00,,,0.00,Wunderground v.1.15,2013-04-18 10:49:00,
2013-04-18 06:54:00,60.6,56.7,30.00,SE,138,4.0,9.0,87,0.00,,,0.00,Wunderground v.1.15,2013-04-18 10:54:00,
2013-04-18 07:00:00,60.8,56.6,30.01,SSE,163,4.0,6.0,86,0.00,,,0.00,Wunderground v.1.15,2013-04-18 11:00:00,
2013-04-18 07:06:00,61.0,56.8,30.01,SSE,147,5.0,14.0,86,0.00,,,0.00,Wunderground v.1.15,2013-04-18 11:06:00,
2013-04-18 07:12:00,61.1,56.9,30.01,SSE,163,5.0,14.0,86,0.00,,,0.00,Wunderground v.1.15,2013-04-18 11:12:00,
2013-04-18 07:18:00,61.3,56.8,30.01,SSE,158,4.0,14.0,85,0.00,,,0.00,Wunderground v.1.15,2013-04-18 11:18:00,
2013-04-18 07:24:00,61.5,56.9,30.01,SSE,165,5.0,14.0,85,0.00,,,0.00,Wunderground v.1.15,2013-04-18 11:24:00,
2013-04-18 07:30:00,61.7,57.1,30.00,SSE,163,5.0,14.0,85,0.00,,,0.00,Wunderground v.1.15,2013-04-18 11:30:00,
2013-04-18 07:36:00,62.0,57.1,30.00,ENE,78,6.0,14.0,84,0.00,,,0.00,Wunderground v.1.15,2013-04-18 11:36:00,
2013-04-18 07:42:00,62.3,57.4,30.00,SSE,163,6.0,14.0,84,0.00,,,0.00,Wunderground v.1.15,2013-04-18 11:42:00,
2013-04-18 07:47:00,62.6,57.4,30.01,South,173,7.0,14.0,83,0.00,,,0.00,Wunderground v.1.15,2013-04-18 11:47:00,
2013-04-18 07:53:00,62.7,57.5,30.01,SSE,165,7.0,14.0,83,0.00,,,0.00,Wunderground v.1.15,2013-04-18 11:53:00,
2013-04-18 07:59:00,62.9,57.3,30.00,SSE,157,6.0,6.0,82,0.00,,,0.00,Wunderground v.1.15,2013-04-18 11:59:00,
2013-04-18 08:04:00,63.1,57.5,30.00,SE,136,6.0,15.0,82,0.00,,,0.00,Wunderground v.1.15,2013-04-18 12:04:00,
2013-04-18 08:10:00,63.2,57.6,30.00,SE,142,7.0,14.0,82,0.00,,,0.00,Wunderground v.1.15,2013-04-18 12:10:00,
2013-04-18 08:16:00,63.5,57.6,29.99,ESE,102,7.0,14.0,81,0.00,,,0.00,Wunderground v.1.15,2013-04-18 12:16:00,
2013-04-18 08:22:00,63.6,57.7,29.99,South,180,7.0,14.0,81,0.00,,,0.00,Wunderground v.1.15,2013-04-18 12:22:00,
2013-04-18 08:28:00,63.8,57.9,29.99,SSE,155,7.0,17.0,81,0.00,,,0.00,Wunderground v.1.15,2013-04-18 12:28:00,
2013-04-18 08:34:00,63.9,57.6,29.98,ESE,121,7.0,14.0,80,0.00,,,0.00,Wunderground v.1.15,2013-04-18 12:34:00,
2013-04-18 08:39:00,64.1,57.8,29.99,SSE,159,8.0,14.0,80,0.00,,,0.00,Wunderground v.1.15,2013-04-18 12:39:00,
2013-04-18 08:45:00,64.5,57.8,29.98,South,190,8.0,14.0,79,0.00,,,0.00,Wunderground v.1.15,2013-04-18 12:45:00,
2013-04-18 08:51:00,64.9,57.9,29.98,SSE,157,7.0,14.0,78,0.00,,,0.00,Wunderground v.1.15,2013-04-18 12:51:00,
2013-04-18 08:57:00,65.5,58.5,29.98,SSE,160,8.0,14.0,78,0.00,,,0.00,Wunderground v.1.15,2013-04-18 12:57:00,
2013-04-18 09:02:00,66.1,58.7,29.97,South,182,9.0,11.0,77,0.00,,,0.00,Wunderground v.1.15,2013-04-18 13:02:00,
2013-04-18 09:08:00,66.5,59.1,29.97,South,182,9.0,11.0,77,0.00,,,0.00,Wunderground v.1.15,2013-04-18 13:08:00,
2013-04-18 09:14:00,67.0,58.8,29.97,SSW,206,8.0,15.0,75,0.00,,,0.00,Wunderground v.1.15,2013-04-18 13:14:00,
2013-04-18 09:19:00,67.3,58.7,29.97,SSE,157,10.0,12.0,74,0.00,,,0.00,Wunderground v.1.15,2013-04-18 13:19:00,
2013-04-18 09:25:00,67.7,59.1,29.97,SSE,167,10.0,14.0,74,0.00,,,0.00,Wunderground v.1.15,2013-04-18 13:25:00,
2013-04-18 09:31:00,68.1,59.1,29.97,SE,136,11.0,11.0,73,0.00,,,0.00,Wunderground v.1.15,2013-04-18 13:31:00,
2013-04-18 09:37:00,68.5,59.5,29.96,SSE,168,9.0,13.0,73,0.00,,,0.00,Wunderground v.1.15,2013-04-18 13:37:00,
2013-04-18 09:43:00,69.0,59.6,29.97,South,178,9.0,13.0,72,0.00,,,0.00,Wunderground v.1.15,2013-04-18 13:43:00,
2013-04-18 09:49:00,69.6,60.2,29.96,South,177,8.0,10.0,72,0.00,,,0.00,Wunderground v.1.15,2013-04-18 13:49:00,
2013-04-18 09:55:00,70.1,60.7,29.96,SSW,201,9.0,18.0,72,0.00,,,0.00,Wunderground v.1.15,2013-04-18 13:55:00,
2013-04-18 10:01:00,70.4,60.5,29.95,SSE,159,10.0,18.0,71,0.00,,,0.00,Wunderground v.1.15,2013-04-18 14:01:00,
2013-04-18 10:06:00,70.6,60.7,29.95,SSE,157,10.0,19.0,71,0.00,,,0.00,Wunderground v.1.15,2013-04-18 14:06:00,
2013-04-18 10:12:00,71.1,60.8,29.95,South,190,10.0,17.0,70,0.00,,,0.00,Wunderground v.1.15,2013-04-18 14:12:00,
2013-04-18 10:18:00,71.3,61.0,29.95,ESE,109,10.0,17.0,70,0.00,,,0.00,Wunderground v.1.15,2013-04-18 14:18:00,
2013-04-18 10:24:00,71.2,61.3,29.95,SE,146,10.0,17.0,71,0.00,,,0.00,Wunderground v.1.15,2013-04-18 14:24:00,
2013-04-18 10:30:00,71.9,61.6,29.95,SSW,206,9.0,17.0,70,0.00,,,0.00,Wunderground v.1.15,2013-04-18 14:30:00,
2013-04-18 10:37:00,72.6,62.3,29.95,SSW,195,9.0,17.0,70,0.00,,,0.00,Wunderground v.1.15,2013-04-18 14:37:00,
2013-04-18 10:42:00,72.9,62.5,29.94,SE,145,9.0,17.0,70,0.00,,,0.00,Wunderground v.1.15,2013-04-18 14:42:00,
2013-04-18 10:48:00,72.9,62.1,29.94,SSE,167,10.0,17.0,69,0.00,,,0.00,Wunderground v.1.15,2013-04-18 14:48:00,
2013-04-18 10:54:00,72.6,62.3,29.95,SSW,201,11.0,17.0,70,0.00,,,0.00,Wunderground v.1.15,2013-04-18 14:54:00,
2013-04-18 11:00:00,72.3,62.0,29.95,SSE,161,12.0,17.0,70,0.00,,,0.00,Wunderground v.1.15,2013-04-18 15:00:00,
2013-04-18 11:05:00,72.2,62.3,29.94,SSE,154,11.0,17.0,71,0.00,,,0.00,Wunderground v.1.15,2013-04-18 15:05:00,
2013-04-18 11:11:00,72.4,62.5,29.94,SSE,167,11.0,17.0,71,0.00,,,0.00,Wunderground v.1.15,2013-04-18 15:11:00,
2013-04-18 11:17:00,72.6,62.3,29.94,SE,146,11.0,17.0,70,0.00,,,0.00,Wunderground v.1.15,2013-04-18 15:17:00,
2013-04-18 11:22:00,72.9,62.5,29.94,South,190,10.0,17.0,70,0.00,,,0.00,Wunderground v.1.15,2013-04-18 15:22:00,
2013-04-18 11:28:00,73.5,62.7,29.94,SSW,203,9.0,18.0,69,0.00,,,0.00,Wunderground v.1.15,2013-04-18 15:28:00,
2013-04-18 11:34:00,73.9,62.7,29.94,South,178,11.0,20.0,68,0.00,,,0.00,Wunderground v.1.15,2013-04-18 15:34:00,
2013-04-18 11:40:00,74.1,62.9,29.93,SSE,151,11.0,17.0,68,0.00,,,0.00,Wunderground v.1.15,2013-04-18 15:40:00,
2013-04-18 11:46:00,74.5,63.7,29.93,SSE,160,9.0,17.0,69,0.00,,,0.00,Wunderground v.1.15,2013-04-18 15:46:00,
2013-04-18 11:52:00,74.5,62.8,29.93,WSW,244,10.0,18.0,67,0.00,,,0.00,Wunderground v.1.15,2013-04-18 15:52:00,
2013-04-18 11:57:00,74.8,63.1,29.92,SSW,204,12.0,18.0,67,0.00,,,0.00,Wunderground v.1.15,2013-04-18 15:57:00,
2013-04-18 12:03:00,74.8,62.7,29.92,SSW,200,12.0,20.0,66,0.00,,,0.00,Wunderground v.1.15,2013-04-18 16:03:00,
2013-04-18 12:09:00,74.9,62.8,29.91,SSW,195,11.0,19.0,66,0.00,,,0.00,Wunderground v.1.15,2013-04-18 16:09:00,
2013-04-18 12:14:00,75.2,63.1,29.91,SSE,165,10.0,19.0,66,0.00,,,0.00,Wunderground v.1.15,2013-04-18 16:14:00,
2013-04-18 12:20:00,75.5,63.8,29.90,South,175,9.0,10.0,67,0.00,,,0.00,Wunderground v.1.15,2013-04-18 16:20:00,
2013-04-18 12:27:00,75.8,63.2,29.89,South,186,11.0,19.0,65,0.00,,,0.00,Wunderground v.1.15,2013-04-18 16:27:00,
2013-04-18 12:33:00,76.3,63.2,29.89,South,172,12.0,14.0,64,0.00,,,0.00,Wunderground v.1.15,2013-04-18 16:33:00,
2013-04-18 12:38:00,76.6,62.6,29.89,SSW,198,11.0,16.0,62,0.00,,,0.00,Wunderground v.1.15,2013-04-18 16:38:00,
2013-04-18 12:44:00,76.9,63.8,29.89,East,100,12.0,17.0,64,0.00,,,0.00,Wunderground v.1.15,2013-04-18 16:44:00,
2013-04-18 12:50:00,77.2,64.1,29.88,SW,223,10.0,13.0,64,0.00,,,0.00,Wunderground v.1.15,2013-04-18 16:50:00,
2013-04-18 12:56:00,77.4,63.4,29.88,SW,227,12.0,22.0,62,0.00,,,0.00,Wunderground v.1.15,2013-04-18 16:56:00,
2013-04-18 13:02:00,77.4,64.3,29.87,South,184,14.0,26.0,64,0.00,,,0.00,Wunderground v.1.15,2013-04-18 17:02:00,
2013-04-18 13:08:00,77.7,63.2,29.87,SSW,205,12.0,26.0,61,0.00,,,0.00,Wunderground v.1.15,2013-04-18 17:08:00,
2013-04-18 13:13:00,78.2,63.6,29.87,WSW,237,11.0,26.0,61,0.00,,,0.00,Wunderground v.1.15,2013-04-18 17:13:00,
2013-04-18 13:19:00,78.3,63.7,29.87,SSE,155,11.0,11.0,61,0.00,,,0.00,Wunderground v.1.15,2013-04-18 17:19:00,
2013-04-18 13:25:00,78.3,64.7,29.88,South,185,12.0,26.0,63,0.00,,,0.00,Wunderground v.1.15,2013-04-18 17:25:00,
2013-04-18 13:31:00,78.6,63.6,29.87,SSW,203,13.0,18.0,60,0.00,,,0.00,Wunderground v.1.15,2013-04-18 17:31:00,
2013-04-18 13:37:00,78.5,63.5,29.87,SSW,193,14.0,26.0,60,0.00,,,0.00,Wunderground v.1.15,2013-04-18 17:37:00,
2013-04-18 13:43:00,78.9,63.4,29.87,SW,227,13.0,26.0,59,0.00,,,0.00,Wunderground v.1.15,2013-04-18 17:43:00,
2013-04-18 13:48:00,79.3,64.2,29.87,SSE,162,12.0,26.0,60,0.00,,,0.00,Wunderground v.1.15,2013-04-18 17:48:00,
2013-04-18 13:54:00,79.4,63.3,29.87,SW,215,11.0,26.0,58,0.00,,,0.00,Wunderground v.1.15,2013-04-18 17:54:00,
2013-04-18 13:59:00,79.4,62.8,29.86,SW,234,12.0,12.0,57,0.00,,,0.00,Wunderground v.1.15,2013-04-18 17:59:00,
2013-04-18 14:05:00,79.7,63.1,29.86,SSE,161,12.0,26.0,57,0.00,,,0.00,Wunderground v.1.15,2013-04-18 18:05:00,
2013-04-18 14:11:00,79.3,63.2,29.85,South,173,14.0,26.0,58,0.00,,,0.00,Wunderground v.1.15,2013-04-18 18:11:00,
2013-04-18 14:17:00,79.2,63.1,29.85,SSE,159,14.0,26.0,58,0.00,,,0.00,Wunderground v.1.15,2013-04-18 18:17:00,
2013-04-18 14:22:00,79.4,62.8,29.85,SSW,202,14.0,26.0,57,0.00,,,0.00,Wunderground v.1.15,2013-04-18 18:22:00,
2013-04-18 14:28:00,79.6,63.0,29.84,SSE,159,14.0,26.0,57,0.00,,,0.00,Wunderground v.1.15,2013-04-18 18:28:00,
2013-04-18 14:34:00,79.7,62.6,29.84,South,169,14.0,26.0,56,0.00,,,0.00,Wunderground v.1.15,2013-04-18 18:34:00,
2013-04-18 14:40:00,80.2,63.6,29.84,SW,234,13.0,26.0,57,0.00,,,0.00,Wunderground v.1.15,2013-04-18 18:40:00,
2013-04-18 14:46:00,80.6,64.0,29.83,SSE,162,11.0,26.0,57,0.00,,,0.00,Wunderground v.1.15,2013-04-18 18:46:00,
2013-04-18 14:51:00,80.0,63.9,29.83,SSE,163,12.0,26.0,58,0.00,,,0.00,Wunderground v.1.15,2013-04-18 18:51:00,
2013-04-18 14:57:00,80.1,63.5,29.84,SW,217,13.0,26.0,57,0.00,,,0.00,Wunderground v.1.15,2013-04-18 18:57:00,
2013-04-18 15:02:00,80.2,63.6,29.83,SSW,202,14.0,16.0,57,0.00,,,0.00,Wunderground v.1.15,2013-04-18 19:02:00,
2013-04-18 15:08:00,80.2,64.1,29.83,SSE,159,14.0,22.0,58,0.00,,,0.00,Wunderground v.1.15,2013-04-18 19:08:00,
2013-04-18 15:14:00,80.1,63.5,29.82,South,174,13.0,18.0,57,0.00,,,0.00,Wunderground v.1.15,2013-04-18 19:14:00,
2013-04-18 15:19:00,80.3,63.2,29.82,SE,145,13.0,15.0,56,0.00,,,0.00,Wunderground v.1.15,2013-04-18 19:19:00,
2013-04-18 15:25:00,80.2,63.1,29.82,SSE,163,15.0,16.0,56,0.00,,,0.00,Wunderground v.1.15,2013-04-18 19:25:00,
2013-04-18 15:31:00,80.2,63.1,29.81,SSE,163,14.0,15.0,56,0.00,,,0.00,Wunderground v.1.15,2013-04-18 19:31:00,
2013-04-18 15:37:00,80.4,63.8,29.81,SSE,149,11.0,16.0,57,0.00,,,0.00,Wunderground v.1.15,2013-04-18 19:37:00,
2013-04-18 15:43:00,80.5,63.9,29.81,South,173,11.0,17.0,57,0.00,,,0.00,Wunderground v.1.15,2013-04-18 19:43:00,
2013-04-18 15:49:00,80.6,63.5,29.81,South,190,13.0,13.0,56,0.00,,,0.00,Wunderground v.1.15,2013-04-18 19:49:00,
2013-04-18 15:55:00,80.7,63.0,29.81,SSW,203,13.0,14.0,55,0.00,,,0.00,Wunderground v.1.15,2013-04-18 19:55:00,
2013-04-18 16:00:00,80.9,62.7,29.80,South,187,11.0,27.0,54,0.00,,,0.00,Wunderground v.1.15,2013-04-18 20:00:00,
2013-04-18 16:07:00,81.2,61.9,29.80,South,182,14.0,27.0,52,0.00,,,0.00,Wunderground v.1.15,2013-04-18 20:07:00,
2013-04-18 16:13:00,81.3,62.5,29.80,South,179,14.0,27.0,53,0.00,,,0.00,Wunderground v.1.15,2013-04-18 20:13:00,
2013-04-18 16:18:00,81.1,62.3,29.80,SSE,168,13.0,27.0,53,0.00,,,0.00,Wunderground v.1.15,2013-04-18 20:18:00,
2013-04-18 16:24:00,81.0,62.8,29.80,SSW,192,11.0,27.0,54,0.00,,,0.00,Wunderground v.1.15,2013-04-18 20:24:00,
2013-04-18 16:30:00,81.4,62.1,29.80,South,175,10.0,27.0,52,0.00,,,0.00,Wunderground v.1.15,2013-04-18 20:30:00,
2013-04-18 16:37:00,81.3,61.4,29.79,SSW,207,13.0,27.0,51,0.00,,,0.00,Wunderground v.1.15,2013-04-18 20:37:00,
2013-04-18 16:43:00,81.3,62.0,29.79,South,173,13.0,27.0,52,0.00,,,0.00,Wunderground v.1.15,2013-04-18 20:43:00,
2013-04-18 16:49:00,81.2,61.4,29.78,SSE,158,11.0,27.0,51,0.00,,,0.00,Wunderground v.1.15,2013-04-18 20:49:00,
2013-04-18 16:55:00,81.3,60.9,29.78,South,174,12.0,27.0,50,0.00,,,0.00,Wunderground v.1.15,2013-04-18 20:55:00,
2013-04-18 17:01:00,81.4,60.4,29.78,South,180,13.0,27.0,49,0.00,,,0.00,Wunderground v.1.15,2013-04-18 21:01:00,
2013-04-18 17:06:00,81.5,60.5,29.79,SSE,165,13.0,27.0,49,0.00,,,0.00,Wunderground v.1.15,2013-04-18 21:06:00,
2013-04-18 17:13:00,81.5,60.5,29.78,SSE,165,12.0,27.0,49,0.00,,,0.00,Wunderground v.1.15,2013-04-18 21:13:00,
2013-04-18 17:19:00,81.5,60.5,29.77,SSE,152,12.0,12.0,49,0.00,,,0.00,Wunderground v.1.15,2013-04-18 21:19:00,
2013-04-18 17:25:00,81.5,60.5,29.78,SSW,202,13.0,27.0,49,0.00,,,0.00,Wunderground v.1.15,2013-04-18 21:25:00,
2013-04-18 17:31:00,81.7,60.1,29.77,South,183,12.0,27.0,48,0.00,,,0.00,Wunderground v.1.15,2013-04-18 21:31:00,
2013-04-18 17:37:00,81.7,59.5,29.77,SSW,205,11.0,27.0,47,0.00,,,0.00,Wunderground v.1.15,2013-04-18 21:37:00,
2013-04-18 17:43:00,81.9,60.3,29.77,South,176,11.0,27.0,48,0.00,,,0.00,Wunderground v.1.15,2013-04-18 21:43:00,
2013-04-18 17:49:00,81.9,59.1,29.77,SW,220,10.0,27.0,46,0.00,,,0.00,Wunderground v.1.15,2013-04-18 21:49:00,
2013-04-18 17:54:00,82.2,58.7,29.77,South,189,12.0,27.0,45,0.00,,,0.00,Wunderground v.1.15,2013-04-18 21:54:00,
2013-04-18 18:00:00,82.2,58.7,29.77,SSW,196,13.0,13.0,45,0.00,,,0.00,Wunderground v.1.15,2013-04-18 22:00:00,
2013-04-18 18:05:00,82.3,59.4,29.77,South,178,13.0,20.0,46,0.00,,,0.00,Wunderground v.1.15,2013-04-18 22:05:00,
2013-04-18 18:11:00,82.6,59.1,29.76,SW,222,11.0,25.0,45,0.00,,,0.00,Wunderground v.1.15,2013-04-18 22:11:00,
2013-04-18 18:17:00,82.8,59.3,29.76,East,80,12.0,25.0,45,0.00,,,0.00,Wunderground v.1.15,2013-04-18 22:17:00,
2013-04-18 18:23:00,82.6,59.1,29.76,SSW,193,10.0,18.0,45,0.00,,,0.00,Wunderground v.1.15,2013-04-18 22:23:00,
2013-04-18 18:29:00,82.4,60.1,29.76,SE,142,9.0,9.0,47,0.00,,,0.00,Wunderground v.1.15,2013-04-18 22:29:00,
2013-04-18 18:34:00,82.2,58.7,29.76,SW,214,8.0,13.0,45,0.00,,,0.00,Wunderground v.1.15,2013-04-18 22:34:00,
2013-04-18 18:40:00,82.0,59.2,29.76,SSE,161,10.0,17.0,46,0.00,,,0.00,Wunderground v.1.15,2013-04-18 22:40:00,
2013-04-18 18:46:00,81.8,58.4,29.76,SW,217,12.0,17.0,45,0.00,,,0.00,Wunderground v.1.15,2013-04-18 22:46:00,
2013-04-18 18:52:00,81.8,58.4,29.76,South,187,12.0,15.0,45,0.00,,,0.00,Wunderground v.1.15,2013-04-18 22:52:00,
2013-04-18 18:57:00,81.9,57.8,29.76,SSE,167,11.0,16.0,44,0.00,,,0.00,Wunderground v.1.15,2013-04-18 22:57:00,
2013-04-18 19:03:00,81.5,57.5,29.76,South,186,11.0,24.0,44,0.00,,,0.00,Wunderground v.1.15,2013-04-18 23:03:00,
2013-04-18 19:09:00,81.5,57.5,29.76,SSW,205,12.0,24.0,44,0.00,,,0.00,Wunderground v.1.15,2013-04-18 23:09:00,
2013-04-18 19:15:00,81.3,57.3,29.76,South,180,11.0,24.0,44,0.00,,,0.00,Wunderground v.1.15,2013-04-18 23:15:00,
2013-04-18 19:21:00,81.1,57.1,29.75,South,186,7.0,24.0,44,0.00,,,0.00,Wunderground v.1.15,2013-04-18 23:21:00,
2013-04-18 19:27:00,81.2,57.2,29.75,SSW,205,10.0,24.0,44,0.00,,,0.00,Wunderground v.1.15,2013-04-18 23:27:00,
2013-04-18 19:33:00,81.0,57.0,29.75,SSW,196,10.0,24.0,44,0.00,,,0.00,Wunderground v.1.15,2013-04-18 23:33:00,
2013-04-18 19:38:00,81.1,57.1,29.75,SW,217,11.0,24.0,44,0.00,,,0.00,Wunderground v.1.15,2013-04-18 23:38:00,
2013-04-18 19:44:00,80.9,56.9,29.75,SE,146,11.0,24.0,44,0.00,,,0.00,Wunderground v.1.15,2013-04-18 23:44:00,
2013-04-18 19:50:00,80.6,56.7,29.75,South,190,10.0,24.0,44,0.00,,,0.00,Wunderground v.1.15,2013-04-18 23:50:00,
2013-04-18 19:55:00,80.4,56.5,29.75,SSW,205,7.0,24.0,44,0.00,,,0.00,Wunderground v.1.15,2013-04-18 23:55:00,
2013-04-18 20:01:00,80.2,56.9,29.75,SE,138,6.0,24.0,45,0.00,,,0.00,Wunderground v.1.15,2013-04-19 00:01:00,
2013-04-18 20:07:00,80.1,56.2,29.75,South,184,7.0,24.0,44,0.00,,,0.00,Wunderground v.1.15,2013-04-19 00:07:00,
2013-04-18 20:13:00,80.0,56.1,29.74,South,186,8.0,24.0,44,0.00,,,0.00,Wunderground v.1.15,2013-04-19 00:13:00,
2013-04-18 20:18:00,80.0,56.7,29.75,SSW,199,8.0,24.0,45,0.00,,,0.00,Wunderground v.1.15,2013-04-19 00:18:00,
2013-04-18 20:24:00,79.8,56.6,29.75,West,275,7.0,24.0,45,0.00,,,0.00,Wunderground v.1.15,2013-04-19 00:24:00,
2013-04-18 20:30:00,76.8,58.4,29.76,WNW,300,6.0,24.0,53,0.00,,,0.00,Wunderground v.1.15,2013-04-19 00:30:00,
2013-04-18 20:36:00,73.3,58.1,29.76,North,355,4.0,24.0,59,0.00,,,0.00,Wunderground v.1.15,2013-04-19 00:36:00,
2013-04-18 20:41:00,71.1,57.9,29.76,NW,309,2.0,24.0,63,0.00,,,0.00,Wunderground v.1.15,2013-04-19 00:41:00,
2013-04-18 20:47:00,69.5,57.6,29.76,NNW,331,0.0,24.0,66,0.00,,,0.00,Wunderground v.1.15,2013-04-19 00:47:00,
2013-04-18 20:53:00,68.5,57.5,29.76,NNW,331,0.0,24.0,68,0.00,,,0.00,Wunderground v.1.15,2013-04-19 00:53:00,
2013-04-18 21:00:00,67.5,57.4,29.77,NNW,327,0.0,1.0,70,0.00,,,0.00,Wunderground v.1.15,2013-04-19 01:00:00,
2013-04-18 21:05:00,66.6,57.7,29.77,WNW,284,1.0,5.0,73,0.00,,,0.00,Wunderground v.1.15,2013-04-19 01:05:00,
2013-04-18 21:12:00,66.0,57.5,29.77,NW,304,2.0,8.0,74,0.00,,,0.00,Wunderground v.1.15,2013-04-19 01:12:00,
2013-04-18 21:18:00,65.5,57.4,29.78,NW,306,2.0,8.0,75,0.00,,,0.00,Wunderground v.1.15,2013-04-19 01:18:00,
2013-04-18 21:23:00,65.1,57.3,29.78,NNW,331,2.0,5.0,76,0.00,,,0.00,Wunderground v.1.15,2013-04-19 01:23:00,
2013-04-18 21:29:00,64.7,57.3,29.78,WNW,296,2.0,2.0,77,0.00,,,0.00,Wunderground v.1.15,2013-04-19 01:29:00,
2013-04-18 21:35:00,64.4,57.4,29.79,NW,323,2.0,5.0,78,0.00,,,0.00,Wunderground v.1.15,2013-04-19 01:35:00,
2013-04-18 21:41:00,64.1,57.5,29.79,NW,325,2.0,3.0,79,0.00,,,0.00,Wunderground v.1.15,2013-04-19 01:41:00,
2013-04-18 21:47:00,63.9,57.6,29.79,NW,326,3.0,5.0,80,0.00,,,0.00,Wunderground v.1.15,2013-04-19 01:47:00,
2013-04-18 21:53:00,63.8,57.5,29.80,West,277,3.0,4.0,80,0.00,,,0.00,Wunderground v.1.15,2013-04-19 01:53:00,
2013-04-18 21:59:00,63.7,57.4,29.80,NNW,335,3.0,5.0,80,0.00,,,0.00,Wunderground v.1.15,2013-04-19 01:59:00,
2013-04-18 22:04:00,63.6,57.3,29.80,WNW,301,4.0,11.0,80,0.00,,,0.00,Wunderground v.1.15,2013-04-19 02:04:00,
2013-04-18 22:10:00,63.5,57.6,29.80,WNW,294,3.0,11.0,81,0.00,,,0.00,Wunderground v.1.15,2013-04-19 02:10:00,
2013-04-18 22:16:00,63.4,57.8,29.80,West,271,3.0,11.0,82,0.00,,,0.00,Wunderground v.1.15,2013-04-19 02:16:00,
2013-04-18 22:22:00,63.2,57.6,29.80,WSW,249,2.0,11.0,82,0.00,,,0.00,Wunderground v.1.15,2013-04-19 02:22:00,
2013-04-18 22:27:00,63.1,57.5,29.80,WNW,286,3.0,11.0,82,0.00,,,0.00,Wunderground v.1.15,2013-04-19 02:27:00,
2013-04-18 22:33:00,63.0,57.4,29.80,NW,319,2.0,11.0,82,0.00,,,0.00,Wunderground v.1.15,2013-04-19 02:33:00,
2013-04-18 22:39:00,62.9,57.3,29.80,West,273,1.0,11.0,82,0.00,,,0.00,Wunderground v.1.15,2013-04-19 02:39:00,
2013-04-18 22:45:00,62.8,57.2,29.79,West,263,1.0,11.0,82,0.00,,,0.00,Wunderground v.1.15,2013-04-19 02:45:00,
2013-04-18 22:51:00,62.7,57.1,29.78,West,272,1.0,11.0,82,0.00,,,0.00,Wunderground v.1.15,2013-04-19 02:51:00,
2013-04-18 22:57:00,62.7,57.1,29.78,West,272,1.0,11.0,82,0.00,,,0.00,Wunderground v.1.15,2013-04-19 02:57:00,
2013-04-18 23:03:00,62.7,57.1,29.77,West,272,0.0,11.0,82,0.00,,,0.00,Wunderground v.1.15,2013-04-19 03:03:00,
2013-04-18 23:08:00,62.6,57.0,29.76,West,272,0.0,11.0,82,0.00,,,0.00,Wunderground v.1.15,2013-04-19 03:08:00,
2013-04-18 23:14:00,62.5,56.9,29.76,West,272,0.0,11.0,82,0.00,,,0.00,Wunderground v.1.15,2013-04-19 03:14:00,
2013-04-18 23:20:00,62.5,56.9,29.76,WSW,250,1.0,11.0,82,0.00,,,0.00,Wunderground v.1.15,2013-04-19 03:20:00,
2013-04-18 23:26:00,62.5,56.9,29.76,WSW,250,1.0,11.0,82,0.00,,,0.00,Wunderground v.1.15,2013-04-19 03:26:00,
2013-04-18 23:31:00,62.4,56.8,29.76,West,264,1.0,11.0,82,0.00,,,0.00,Wunderground v.1.15,2013-04-19 03:31:00,
2013-04-18 23:37:00,62.4,56.8,29.77,SW,231,1.0,11.0,82,0.00,,,0.00,Wunderground v.1.15,2013-04-19 03:37:00,
2013-04-18 23:43:00,62.4,56.8,29.77,SW,214,0.0,11.0,82,0.00,,,0.00,Wunderground v.1.15,2013-04-19 03:43:00,
2013-04-18 23:49:00,62.4,56.8,29.76,SW,214,1.0,1.0,82,0.00,,,0.00,Wunderground v.1.15,2013-04-19 03:49:00,
2013-04-18 23:55:00,62.4,56.8,29.76,SSW,207,1.0,11.0,82,0.00,,,0.00,Wunderground v.1.15,2013-04-19 03:55:00,